Detall de PIREP

Printer-friendly versionPDF version

[2013/07/28 10:46:00]
Flight IATA:CT1004
Pilot Number:012
Company ICAO:CAT
Aircraft Type:F70/A
PAX:79
Aircraft Registration:PFJ
Departing Airport: LFMT
Destination Airport: LEMD
Alternate Airport:LEMG
Online: VATSIM
Route:PPG UP84 LANDA UN975 ADUXO
Flight Level:F290
No Slew and time accel
No pause
Crash detect
Detect pilot in Cockpit between each 30 and 45 minutes
10:46 Zero fuel Weight: 70897 Lbs, Fuel Weight: 12167 Lbs
10:46 VATSIM:LFMT 281030Z 15006KT 9999 SCT026 SCT046 BKN160 28/23 Q1012
10:46 VATSIM:LEMD 281030Z 21011G21KT 160V300 9999 FEW050 SCT070 23/08 Q1017 NOSIG
10:46 VOICE CATALONIAN / SUMMER CHARTER
10:50 Parking Brakes off
10:55 Take-off
10:55 Take off Weight: 82652 Lbs
10:55 Wind: 149º @ 006 Knots Heading: 304º
10:55 POS N43º 35´ 03´´ E003º 57´ 38´´
10:55 Gear Up: 151 Knots
10:55 Flaps:2 at 151 Knots
10:56 Flaps:1 at 178 Knots
10:56 Flaps:0 at 194Knots
11:08 TOC
11:08 Fuel Weight: 10206 Lb
11:10 Wind:217º@059 Knots Heading: 222º Ground Speed: 253 Knots Altitude 30918 ft
11:25 Wind:221º@068 Knots Heading: 233º Ground Speed: 396 Knots Altitude 30954 ft
11:40 Wind:220º@079 Knots Heading: 253º Ground Speed: 394 Knots Altitude 30977 ft
11:55 Wind:220º@079 Knots Heading: 244º Ground Speed: 387 Knots Altitude 31062 ft
11:59 TOD
11:59 Fuel Weight: 6220 Lb
12:10 Wind:235º@020 Knots Heading: 255º Ground Speed: 260 Knots Altitude 10393 ft
12:15 Flaps:1 at 202 Knots
12:16 Flaps:2 at 196 Knots
12:17 Gear Down: 172 Knots
12:17 Flaps:3 at 145 Knots
12:17 Flaps:4 at 132 Knots
12:19 TouchDown:Rate -301 ft/min Speed: 111 Knots
12:19 VATSIM:LEMD 281200Z 21012KT 9999 FEW060 24/07 Q1017 NOSIG
12:19 Land
12:19 Wind:214º@013 Knots
12:19 Heading: 178º
12:19 Flight Duration: 01:24
12:19 Landing Weight: 76437 Lbs
12:19 POS N40º 30´ 44´´ W003º 33´ 33´´
12:20 Parking brakes on
12:20 Block to Block Duration: 01:30
12:20 Final Fuel: 5526 Lbls
12:20 Spent Fuel: 6640 Lbls
12:20 Flight Length: 477 NM
12:20 TOD Land Length: 91 NM

Exportar CSV

Powered by Drupal - Modified by Danger4k